sensor_id;sensor_type;location;lat;lon;timestamp;pressure;altitude;pressure_sealevel;temperature;humidity
58875;BME280;44652;49.040;12.126;2023-11-21T05:43:50;96986.41;;;5.92;100.00
58875;BME280;44652;49.040;12.126;2023-11-21T05:46:17;97005.72;;;5.96;100.00
58875;BME280;44652;49.040;12.126;2023-11-21T05:48:44;96996.47;;;5.81;100.00
58875;BME280;44652;49.040;12.126;2023-11-21T05:51:12;97015.94;;;5.90;100.00
58875;BME280;44652;49.040;12.126;2023-11-21T05:53:40;97007.16;;;5.88;100.00
58875;BME280;44652;49.040;12.126;2023-11-21T05:56:07;97019.56;;;5.93;100.00
58875;BME280;44652;49.040;12.126;2023-11-21T05:58:34;97023.22;;;5.98;100.00
58875;BME280;44652;49.040;12.126;2023-11-21T06:01:01;97004.94;;;5.74;100.00
58875;BME280;44652;49.040;12.126;2023-11-21T06:03:27;97019.00;;;6.02;100.00
58875;BME280;44652;49.040;12.126;2023-11-21T06:05:54;97005.09;;;6.03;100.00
58875;BME280;44652;49.040;12.126;2023-11-21T06:08:21;97024.06;;;6.23;100.00
58875;BME280;44652;49.040;12.126;2023-11-21T06:10:48;97032.84;;;6.25;100.00
58875;BME280;44652;49.040;12.126;2023-11-21T06:13:16;96994.78;;;6.07;100.00
58875;BME280;44652;49.040;12.126;2023-11-21T06:15:42;97031.88;;;6.21;100.00
58875;BME280;44652;49.040;12.126;2023-11-21T06:18:09;97015.19;;;6.18;100.00
58875;BME280;44652;49.040;12.126;2023-11-21T06:20:41;97030.56;;;6.34;100.00
58875;BME280;44652;49.040;12.126;2023-11-21T06:23:07;97037.03;;;6.20;100.00
58875;BME280;44652;49.040;12.126;2023-11-21T06:25:35;97017.06;;;5.96;100.00
58875;BME280;44652;49.040;12.126;2023-11-21T06:28:03;97015.00;;;5.88;100.00
58875;BME280;44652;49.040;12.126;2023-11-21T06:30:30;97035.94;;;6.13;100.00
58875;BME280;44652;49.040;12.126;2023-11-21T06:32:56;97030.81;;;6.16;100.00
58875;BME280;44652;49.040;12.126;2023-11-21T06:35:23;97044.28;;;6.27;100.00
58875;BME280;44652;49.040;12.126;2023-11-21T06:37:50;97038.03;;;6.23;100.00
58875;BME280;44652;49.040;12.126;2023-11-21T06:40:19;97052.72;;;6.45;100.00
58875;BME280;44652;49.040;12.126;2023-11-21T06:42:47;97057.72;;;6.38;100.00
58875;BME280;44652;49.040;12.126;2023-11-21T06:45:15;97049.06;;;6.40;100.00
58875;BME280;44652;49.040;12.126;2023-11-21T06:47:42;97048.03;;;6.35;100.00
58875;BME280;44652;49.040;12.126;2023-11-21T06:50:09;97057.50;;;6.31;100.00
58875;BME280;44652;49.040;12.126;2023-11-21T06:52:36;97039.44;;;6.14;100.00
58875;BME280;44652;49.040;12.126;2023-11-21T06:55:03;97059.13;;;6.28;100.00
58875;BME280;44652;49.040;12.126;2023-11-21T06:57:31;97069.72;;;6.32;100.00
58875;BME280;44652;49.040;12.126;2023-11-21T07:00:00;97064.72;;;6.39;100.00
58875;BME280;44652;49.040;12.126;2023-11-21T07:02:27;97043.22;;;6.22;100.00
58875;BME280;44652;49.040;12.126;2023-11-21T07:04:54;97049.78;;;6.36;100.00
58875;BME280;44652;49.040;12.126;2023-11-21T07:07:21;97052.16;;;6.28;100.00
58875;BME280;44652;49.040;12.126;2023-11-21T07:09:48;97068.28;;;6.41;100.00
58875;BME280;44652;49.040;12.126;2023-11-21T07:12:15;97067.78;;;6.25;100.00
58875;BME280;44652;49.040;12.126;2023-11-21T07:14:42;97084.00;;;6.41;100.00
58875;BME280;44652;49.040;12.126;2023-11-21T07:17:11;97069.22;;;6.43;100.00
58875;BME280;44652;49.040;12.126;2023-11-21T07:19:41;97085.88;;;6.45;100.00
58875;BME280;44652;49.040;12.126;2023-11-21T07:22:08;97062.09;;;6.39;100.00
58875;BME280;44652;49.040;12.126;2023-11-21T07:24:36;97059.34;;;6.34;100.00
58875;BME280;44652;49.040;12.126;2023-11-21T07:27:05;97054.69;;;6.25;100.00
58875;BME280;44652;49.040;12.126;2023-11-21T07:29:32;97046.88;;;6.27;100.00
58875;BME280;44652;49.040;12.126;2023-11-21T07:31:59;97050.78;;;6.40;100.00
58875;BME280;44652;49.040;12.126;2023-11-21T07:34:27;97085.56;;;6.63;100.00
58875;BME280;44652;49.040;12.126;2023-11-21T07:36:53;97060.22;;;6.34;100.00
58875;BME280;44652;49.040;12.126;2023-11-21T07:39:20;97082.78;;;6.56;100.00
58875;BME280;44652;49.040;12.126;2023-11-21T07:41:47;97054.94;;;6.33;100.00
58875;BME280;44652;49.040;12.126;2023-11-21T07:44:17;97085.19;;;6.50;100.00
58875;BME280;44652;49.040;12.126;2023-11-21T07:46:44;97059.50;;;6.39;100.00
58875;BME280;44652;49.040;12.126;2023-11-21T07:49:12;97086.03;;;6.49;100.00
58875;BME280;44652;49.040;12.126;2023-11-21T07:51:43;97099.31;;;6.55;100.00
58875;BME280;44652;49.040;12.126;2023-11-21T07:54:10;97107.38;;;6.62;100.00
58875;BME280;44652;49.040;12.126;2023-11-21T07:56:36;97093.59;;;6.67;100.00
58875;BME280;44652;49.040;12.126;2023-11-21T07:59:03;97114.00;;;6.77;100.00
58875;BME280;44652;49.040;12.126;2023-11-21T08:01:31;97099.31;;;6.55;100.00
58875;BME280;44652;49.040;12.126;2023-11-21T08:03:58;97084.41;;;6.53;100.00
58875;BME280;44652;49.040;12.126;2023-11-21T08:06:30;97099.13;;;6.76;100.00
58875;BME280;44652;49.040;12.126;2023-11-21T08:08:57;97105.31;;;6.78;100.00
58875;BME280;44652;49.040;12.126;2023-11-21T08:11:24;97087.78;;;6.76;100.00
58875;BME280;44652;49.040;12.126;2023-11-21T08:13:51;97114.00;;;6.77;100.00
58875;BME280;44652;49.040;12.126;2023-11-21T08:16:18;97111.63;;;6.85;100.00
58875;BME280;44652;49.040;12.126;2023-11-21T08:18:44;97107.34;;;6.87;100.00
58875;BME280;44652;49.040;12.126;2023-11-21T08:21:14;97080.59;;;6.70;100.00
58875;BME280;44652;49.040;12.126;2023-11-21T08:23:41;97117.50;;;6.78;100.00
58875;BME280;44652;49.040;12.126;2023-11-21T08:26:08;97093.28;;;6.85;100.00
58875;BME280;44652;49.040;12.126;2023-11-21T08:28:35;97095.72;;;6.79;100.00
58875;BME280;44652;49.040;12.126;2023-11-21T08:31:02;97108.22;;;6.88;100.00
58875;BME280;44652;49.040;12.126;2023-11-21T08:33:28;97111.22;;;7.00;100.00
58875;BME280;44652;49.040;12.126;2023-11-21T08:35:55;97117.91;;;6.90;100.00
58875;BME280;44652;49.040;12.126;2023-11-21T08:38:22;97106.56;;;6.90;100.00
58875;BME280;44652;49.040;12.126;2023-11-21T08:40:49;97122.22;;;6.88;100.00
58875;BME280;44652;49.040;12.126;2023-11-21T08:43:15;97127.78;;;6.99;100.00
58875;BME280;44652;49.040;12.126;2023-11-21T08:45:43;97131.09;;;7.20;100.00
58875;BME280;44652;49.040;12.126;2023-11-21T08:48:09;97132.34;;;7.31;100.00
58875;BME280;44652;49.040;12.126;2023-11-21T08:50:38;97130.88;;;7.13;100.00
58875;BME280;44652;49.040;12.126;2023-11-21T08:53:04;97115.41;;;6.93;100.00
58875;BME280;44652;49.040;12.126;2023-11-21T08:55:32;97138.66;;;7.11;100.00
58875;BME280;44652;49.040;12.126;2023-11-21T08:58:04;97130.41;;;7.26;100.00
58875;BME280;44652;49.040;12.126;2023-11-21T09:00:32;97142.16;;;7.39;100.00
58875;BME280;44652;49.040;12.126;2023-11-21T09:03:00;97126.88;;;7.25;100.00
58875;BME280;44652;49.040;12.126;2023-11-21T09:05:28;97123.81;;;7.12;100.00
58875;BME280;44652;49.040;12.126;2023-11-21T09:07:55;97122.25;;;7.17;100.00
58875;BME280;44652;49.040;12.126;2023-11-21T09:10:21;97130.59;;;7.32;100.00
58875;BME280;44652;49.040;12.126;2023-11-21T09:12:49;97131.75;;;7.42;100.00
58875;BME280;44652;49.040;12.126;2023-11-21T09:15:16;97157.38;;;7.50;100.00
58875;BME280;44652;49.040;12.126;2023-11-21T09:17:42;97129.63;;;7.28;100.00
58875;BME280;44652;49.040;12.126;2023-11-21T09:20:11;97152.16;;;7.23;100.00
58875;BME280;44652;49.040;12.126;2023-11-21T09:22:38;97173.19;;;7.53;100.00
58875;BME280;44652;49.040;12.126;2023-11-21T09:25:05;97143.53;;;7.54;100.00
58875;BME280;44652;49.040;12.126;2023-11-21T09:27:32;97170.09;;;7.67;100.00
58875;BME280;44652;49.040;12.126;2023-11-21T09:29:59;97163.38;;;7.46;100.00
58875;BME280;44652;49.040;12.126;2023-11-21T09:32:25;97160.06;;;7.53;100.00
58875;BME280;44652;49.040;12.126;2023-11-21T09:34:52;97174.22;;;7.59;100.00
58875;BME280;44652;49.040;12.126;2023-11-21T09:37:21;97167.59;;;7.70;100.00
58875;BME280;44652;49.040;12.126;2023-11-21T09:39:48;97162.34;;;7.70;100.00
58875;BME280;44652;49.040;12.126;2023-11-21T09:42:23;97158.00;;;7.72;100.00
58875;BME280;44652;49.040;12.126;2023-11-21T09:44:58;97146.28;;;7.59;100.00
58875;BME280;44652;49.040;12.126;2023-11-21T09:47:28;97163.44;;;7.78;100.00
58875;BME280;44652;49.040;12.126;2023-11-21T09:49:56;97162.59;;;7.79;100.00
58875;BME280;44652;49.040;12.126;2023-11-21T09:52:27;97175.69;;;7.77;100.00
58875;BME280;44652;49.040;12.126;2023-11-21T09:54:55;97165.22;;;7.79;100.00
58875;BME280;44652;49.040;12.126;2023-11-21T09:57:27;97135.22;;;7.69;100.00
58875;BME280;44652;49.040;12.126;2023-11-21T09:59:54;97167.00;;;7.80;100.00
58875;BME280;44652;49.040;12.126;2023-11-21T10:02:27;97132.53;;;7.68;100.00
58875;BME280;44652;49.040;12.126;2023-11-21T10:04:56;97149.53;;;7.80;100.00
58875;BME280;44652;49.040;12.126;2023-11-21T10:07:23;97162.94;;;7.91;100.00
58875;BME280;44652;49.040;12.126;2023-11-21T10:09:51;97160.53;;;7.99;100.00
58875;BME280;44652;49.040;12.126;2023-11-21T10:12:18;97159.75;;;8.01;100.00
58875;BME280;44652;49.040;12.126;2023-11-21T10:14:49;97130.66;;;7.92;100.00
58875;BME280;44652;49.040;12.126;2023-11-21T10:17:17;97154.03;;;8.15;100.00
58875;BME280;44652;49.040;12.126;2023-11-21T10:19:48;97145.09;;;8.08;100.00
58875;BME280;44652;49.040;12.126;2023-11-21T10:22:15;97146.75;;;8.06;100.00
58875;BME280;44652;49.040;12.126;2023-11-21T10:24:42;97142.50;;;8.10;100.00
58875;BME280;44652;49.040;12.126;2023-11-21T10:27:19;97160.53;;;8.29;100.00
58875;BME280;44652;49.040;12.126;2023-11-21T10:29:46;97149.03;;;8.24;100.00
58875;BME280;44652;49.040;12.126;2023-11-21T10:32:12;97143.78;;;8.24;100.00
58875;BME280;44652;49.040;12.126;2023-11-21T10:34:39;97145.53;;;8.25;100.00
58875;BME280;44652;49.040;12.126;2023-11-21T10:37:14;97167.00;;;8.40;100.00
58875;BME280;44652;49.040;12.126;2023-11-21T10:39:43;97165.78;;;8.29;100.00
58875;BME280;44652;49.040;12.126;2023-11-21T10:42:11;97167.59;;;8.32;100.00
58875;BME280;44652;49.040;12.126;2023-11-21T10:44:38;97130.81;;;7.98;100.00
58875;BME280;44652;49.040;12.126;2023-11-21T10:47:08;97147.84;;;8.14;100.00
58875;BME280;44652;49.040;12.126;2023-11-21T10:49:36;97150.13;;;8.32;100.00
58875;BME280;44652;49.040;12.126;2023-11-21T10:52:04;97166.81;;;8.34;100.00
58875;BME280;44652;49.040;12.126;2023-11-21T10:54:30;97161.72;;;8.39;100.00
58875;BME280;44652;49.040;12.126;2023-11-21T10:56:59;97168.16;;;8.20;100.00
58875;BME280;44652;49.040;12.126;2023-11-21T10:59:30;97148.34;;;8.31;100.00
58875;BME280;44652;49.040;12.126;2023-11-21T11:02:01;97147.38;;;7.96;100.00
58875;BME280;44652;49.040;12.126;2023-11-21T11:04:31;97141.81;;;7.85;100.00
58875;BME280;44652;49.040;12.126;2023-11-21T11:07:01;97169.59;;;8.09;100.00
58875;BME280;44652;49.040;12.126;2023-11-21T11:09:32;97159.56;;;8.25;100.00
58875;BME280;44652;49.040;12.126;2023-11-21T11:12:02;97141.88;;;8.18;100.00
58875;BME280;44652;49.040;12.126;2023-11-21T11:14:31;97149.81;;;8.21;100.00
58875;BME280;44652;49.040;12.126;2023-11-21T11:16:59;97162.84;;;8.48;100.00
58875;BME280;44652;49.040;12.126;2023-11-21T11:19:27;97141.72;;;8.44;100.00
58875;BME280;44652;49.040;12.126;2023-11-21T11:24:48;97128.59;;;8.14;100.00
58875;BME280;44652;49.040;12.126;2023-11-21T11:32:58;97155.91;;;8.20;100.00
58875;BME280;44652;49.040;12.126;2023-11-21T11:35:42;97153.63;;;8.33;100.00
58875;BME280;44652;49.040;12.126;2023-11-21T11:38:14;97156.34;;;8.36;100.00
58875;BME280;44652;49.040;12.126;2023-11-21T11:40:47;97157.56;;;8.47;100.00
58875;BME280;44652;49.040;12.126;2023-11-21T11:43:25;97130.97;;;8.36;100.00
58875;BME280;44652;49.040;12.126;2023-11-21T11:45:55;97134.75;;;8.14;100.00
58875;BME280;44652;49.040;12.126;2023-11-21T11:48:22;97151.41;;;8.15;100.00
58875;BME280;44652;49.040;12.126;2023-11-21T11:51:06;97163.38;;;8.07;100.00
58875;BME280;44652;49.040;12.126;2023-11-21T11:53:41;97132.50;;;7.96;100.00
58875;BME280;44652;49.040;12.126;2023-11-21T11:56:31;97168.25;;;8.23;100.00
58875;BME280;44652;49.040;12.126;2023-11-21T11:59:02;97163.47;;;8.38;100.00
58875;BME280;44652;49.040;12.126;2023-11-21T12:01:32;97143.69;;;8.21;100.00
58875;BME280;44652;49.040;12.126;2023-11-21T12:06:43;97157.06;;;8.60;100.00
58875;BME280;44652;49.040;12.126;2023-11-21T12:09:20;97128.06;;;8.57;100.00
58875;BME280;44652;49.040;12.126;2023-11-21T12:11:49;97162.81;;;8.47;100.00
58875;BME280;44652;49.040;12.126;2023-11-21T12:14:18;97147.50;;;8.64;100.00
58875;BME280;44652;49.040;12.126;2023-11-21T12:16:44;97130.06;;;8.67;100.00
58875;BME280;44652;49.040;12.126;2023-11-21T12:19:12;97155.59;;;8.40;100.00
58875;BME280;44652;49.040;12.126;2023-11-21T12:21:39;97144.03;;;8.65;100.00
58875;BME280;44652;49.040;12.126;2023-11-21T12:24:10;97153.22;;;8.82;100.00
58875;BME280;44652;49.040;12.126;2023-11-21T12:26:41;97133.31;;;8.90;100.00
58875;BME280;44652;49.040;12.126;2023-11-21T12:29:08;97156.13;;;8.93;100.00
58875;BME280;44652;49.040;12.126;2023-11-21T12:31:35;97146.19;;;8.81;100.00
58875;BME280;44652;49.040;12.126;2023-11-21T12:34:02;97142.06;;;8.91;100.00
58875;BME280;44652;49.040;12.126;2023-11-21T12:36:29;97143.91;;;8.95;100.00
58875;BME280;44652;49.040;12.126;2023-11-21T12:38:56;97134.97;;;8.87;100.00
58875;BME280;44652;49.040;12.126;2023-11-21T12:41:23;97165.47;;;8.82;100.00
58875;BME280;44652;49.040;12.126;2023-11-21T12:43:50;97167.91;;;8.74;100.00
58875;BME280;44652;49.040;12.126;2023-11-21T12:46:17;97168.88;;;8.77;100.00
58875;BME280;44652;49.040;12.126;2023-11-21T12:48:45;97171.91;;;8.60;100.00
58875;BME280;44652;49.040;12.126;2023-11-21T12:51:14;97166.63;;;8.60;100.00
58875;BME280;44652;49.040;12.126;2023-11-21T12:53:42;97153.41;;;8.55;100.00
58875;BME280;44652;49.040;12.126;2023-11-21T12:56:13;97151.75;;;8.59;100.00
58875;BME280;44652;49.040;12.126;2023-11-21T12:58:44;97174.97;;;8.43;100.00
58875;BME280;44652;49.040;12.126;2023-11-21T13:01:13;97177.78;;;8.51;100.00
58875;BME280;44652;49.040;12.126;2023-11-21T13:03:48;97166.72;;;8.63;100.00
58875;BME280;44652;49.040;12.126;2023-11-21T13:06:17;97151.59;;;8.52;100.00
58875;BME280;44652;49.040;12.126;2023-11-21T13:08:45;97158.63;;;8.53;100.00
58875;BME280;44652;49.040;12.126;2023-11-21T13:11:12;97180.72;;;8.62;100.00
58875;BME280;44652;49.040;12.126;2023-11-21T13:13:41;97183.25;;;8.59;100.00
58875;BME280;44652;49.040;12.126;2023-11-21T13:16:12;97164.47;;;8.43;100.00
58875;BME280;44652;49.040;12.126;2023-11-21T13:18:39;97167.09;;;8.43;100.00
58875;BME280;44652;49.040;12.126;2023-11-21T13:21:09;97178.59;;;8.48;100.00
58875;BME280;44652;49.040;12.126;2023-11-21T13:23:44;97174.81;;;8.37;100.00
58875;BME280;44652;49.040;12.126;2023-11-21T13:26:13;97173.19;;;8.42;100.00
58875;BME280;44652;49.040;12.126;2023-11-21T13:28:41;97169.56;;;8.37;100.00
58875;BME280;44652;49.040;12.126;2023-11-21T13:31:13;97173.13;;;8.41;100.00
58875;BME280;44652;49.040;12.126;2023-11-21T13:33:59;97183.25;;;8.28;100.00
58875;BME280;44652;49.040;12.126;2023-11-21T13:36:32;97180.94;;;8.38;100.00
58875;BME280;44652;49.040;12.126;2023-11-21T13:39:02;97204.78;;;8.45;100.00
58875;BME280;44652;49.040;12.126;2023-11-21T13:41:35;97184.13;;;8.27;100.00
58875;BME280;44652;49.040;12.126;2023-11-21T13:44:04;97188.59;;;8.30;100.00
58875;BME280;44652;49.040;12.126;2023-11-21T13:46:53;97208.84;;;8.36;100.00
58875;BME280;44652;49.040;12.126;2023-11-21T13:49:22;97215.84;;;8.35;100.00
58875;BME280;44652;49.040;12.126;2023-11-21T13:51:49;97200.94;;;8.34;100.00
58875;BME280;44652;49.040;12.126;2023-11-21T13:54:19;97222.31;;;8.46;100.00
58875;BME280;44652;49.040;12.126;2023-11-21T13:56:48;97222.88;;;8.36;100.00
58875;BME280;44652;49.040;12.126;2023-11-21T13:59:17;97194.63;;;8.27;100.00
58875;BME280;44652;49.040;12.126;2023-11-21T14:01:52;97223.72;;;8.35;100.00
58875;BME280;44652;49.040;12.126;2023-11-21T14:04:27;97223.94;;;8.41;100.00
58875;BME280;44652;49.040;12.126;2023-11-21T14:06:56;97213.34;;;8.38;100.00
58875;BME280;44652;49.040;12.126;2023-11-21T14:09:25;97209.00;;;8.40;100.00
58875;BME280;44652;49.040;12.126;2023-11-21T14:11:59;97222.56;;;8.56;100.00
58875;BME280;44652;49.040;12.126;2023-11-21T14:14:27;97214.56;;;8.51;100.00
58875;BME280;44652;49.040;12.126;2023-11-21T14:16:57;97225.03;;;8.49;100.00
58875;BME280;44652;49.040;12.126;2023-11-21T14:19:25;97225.28;;;8.59;100.00
58875;BME280;44652;49.040;12.126;2023-11-21T14:21:58;97224.22;;;8.52;100.00
58875;BME280;44652;49.040;12.126;2023-11-21T14:24:24;97211.56;;;8.37;100.00
58875;BME280;44652;49.040;12.126;2023-11-21T14:26:52;97231.88;;;8.44;100.00
58875;BME280;44652;49.040;12.126;2023-11-21T14:29:19;97235.47;;;8.48;100.00
58875;BME280;44652;49.040;12.126;2023-11-21T14:31:47;97222.28;;;8.45;100.00
58875;BME280;44652;49.040;12.126;2023-11-21T14:34:14;97219.47;;;8.39;100.00
58875;BME280;44652;49.040;12.126;2023-11-21T14:36:46;97229.94;;;8.37;100.00
58875;BME280;44652;49.040;12.126;2023-11-21T14:39:14;97222.63;;;8.27;100.00
58875;BME280;44652;49.040;12.126;2023-11-21T14:41:50;97217.28;;;8.24;100.00
58875;BME280;44652;49.040;12.126;2023-11-21T14:44:19;97242.97;;;8.36;100.00
58875;BME280;44652;49.040;12.126;2023-11-21T14:46:47;97252.72;;;8.38;100.00
58875;BME280;44652;49.040;12.126;2023-11-21T14:49:17;97240.13;;;8.28;100.00
58875;BME280;44652;49.040;12.126;2023-11-21T14:51:49;97237.31;;;8.22;100.00
58875;BME280;44652;49.040;12.126;2023-11-21T14:54:34;97236.41;;;8.20;100.00
58875;BME280;44652;49.040;12.126;2023-11-21T14:57:09;97240.88;;;8.22;100.00
58875;BME280;44652;49.040;12.126;2023-11-21T14:59:46;97250.53;;;8.25;100.00
58875;BME280;44652;49.040;12.126;2023-11-21T15:02:24;97254.91;;;8.24;100.00
58875;BME280;44652;49.040;12.126;2023-11-21T15:05:30;97229.09;;;8.10;100.00
58875;BME280;44652;49.040;12.126;2023-11-21T15:07:57;97242.22;;;8.10;100.00
58875;BME280;44652;49.040;12.126;2023-11-21T15:10:34;97241.34;;;8.09;100.00
58875;BME280;44652;49.040;12.126;2023-11-21T15:13:16;97257.22;;;8.14;100.00
58875;BME280;44652;49.040;12.126;2023-11-21T15:15:42;97259.81;;;8.12;100.00
58875;BME280;44652;49.040;12.126;2023-11-21T15:18:09;97250.97;;;8.10;100.00
58875;BME280;44652;49.040;12.126;2023-11-21T15:20:42;97268.78;;;8.20;100.00
58875;BME280;44652;49.040;12.126;2023-11-21T15:23:10;97253.34;;;8.01;100.00
58875;BME280;44652;49.040;12.126;2023-11-21T15:25:39;97271.09;;;8.10;100.00
58875;BME280;44652;49.040;12.126;2023-11-21T15:28:05;97277.16;;;8.07;100.00
58875;BME280;44652;49.040;12.126;2023-11-21T15:30:32;97277.94;;;8.04;100.00
58875;BME280;44652;49.040;12.126;2023-11-21T15:32:59;97265.47;;;7.97;100.00
58875;BME280;44652;49.040;12.126;2023-11-21T15:35:26;97266.34;;;7.96;100.00
58875;BME280;44652;49.040;12.126;2023-11-21T15:37:56;97273.22;;;7.93;100.00
58875;BME280;44652;49.040;12.126;2023-11-21T15:40:25;97284.84;;;8.01;100.00
58875;BME280;44652;49.040;12.126;2023-11-21T15:42:51;97289.94;;;7.96;100.00
58875;BME280;44652;49.040;12.126;2023-11-21T15:45:18;97281.03;;;7.91;100.00
58875;BME280;44652;49.040;12.126;2023-11-21T15:47:48;97289.06;;;7.96;100.00
58875;BME280;44652;49.040;12.126;2023-11-21T15:50:14;97261.59;;;7.85;100.00
58875;BME280;44652;49.040;12.126;2023-11-21T15:52:41;97284.69;;;7.96;100.00
58875;BME280;44652;49.040;12.126;2023-11-21T15:55:24;97283.47;;;7.85;100.00
58875;BME280;44652;49.040;12.126;2023-11-21T15:57:51;97291.47;;;7.90;100.00
58875;BME280;44652;49.040;12.126;2023-11-21T16:00:18;97286.19;;;7.88;100.00
58875;BME280;44652;49.040;12.126;2023-11-21T16:02:48;97285.22;;;7.85;100.00
58875;BME280;44652;49.040;12.126;2023-11-21T16:05:15;97286.00;;;7.82;100.00
58875;BME280;44652;49.040;12.126;2023-11-21T16:07:43;97287.72;;;7.82;100.00
58875;BME280;44652;49.040;12.126;2023-11-21T16:10:10;97291.22;;;7.80;100.00
58875;BME280;44652;49.040;12.126;2023-11-21T16:12:37;97308.81;;;7.85;100.00
58875;BME280;44652;49.040;12.126;2023-11-21T16:15:07;97311.44;;;7.85;100.00
58875;BME280;44652;49.040;12.126;2023-11-21T16:17:38;97306.88;;;7.79;100.00
58875;BME280;44652;49.040;12.126;2023-11-21T16:20:05;97299.53;;;7.69;100.00
58875;BME280;44652;49.040;12.126;2023-11-21T16:22:39;97295.88;;;7.64;100.00
58875;BME280;44652;49.040;12.126;2023-11-21T16:25:08;97309.22;;;7.70;100.00
58875;BME280;44652;49.040;12.126;2023-11-21T16:27:40;97311.53;;;7.61;100.00
58875;BME280;44652;49.040;12.126;2023-11-21T16:30:08;97289.13;;;7.43;100.00
58875;BME280;44652;49.040;12.126;2023-11-21T16:32:35;97288.78;;;7.34;100.00
58875;BME280;44652;49.040;12.126;2023-11-21T16:35:03;97302.50;;;7.25;100.00
58875;BME280;44652;49.040;12.126;2023-11-21T16:37:30;97319.47;;;7.37;100.00
58875;BME280;44652;49.040;12.126;2023-11-21T16:39:58;97312.00;;;7.23;100.00
58875;BME280;44652;49.040;12.126;2023-11-21T16:42:25;97324.34;;;7.26;100.00
58875;BME280;44652;49.040;12.126;2023-11-21T16:44:57;97312.50;;;7.12;100.00
58875;BME280;44652;49.040;12.126;2023-11-21T16:47:23;97323.78;;;7.09;100.00
58875;BME280;44652;49.040;12.126;2023-11-21T16:49:52;97352.59;;;7.09;100.00
58875;BME280;44652;49.040;12.126;2023-11-21T16:52:19;97339.13;;;6.98;100.00
58875;BME280;44652;49.040;12.126;2023-11-21T16:54:49;97321.00;;;6.80;100.00
58875;BME280;44652;49.040;12.126;2023-11-21T16:57:17;97353.44;;;6.84;100.00
58875;BME280;44652;49.040;12.126;2023-11-21T16:59:44;97347.47;;;6.88;100.00
58875;BME280;44652;49.040;12.126;2023-11-21T17:02:10;97348.16;;;6.82;100.00
58875;BME280;44652;49.040;12.126;2023-11-21T17:04:40;97373.53;;;6.85;100.00
58875;BME280;44652;49.040;12.126;2023-11-21T17:07:09;97362.50;;;6.70;100.00
58875;BME280;44652;49.040;12.126;2023-11-21T17:09:39;97352.00;;;6.68;100.00
58875;BME280;44652;49.040;12.126;2023-11-21T17:12:05;97378.28;;;6.71;100.00
58875;BME280;44652;49.040;12.126;2023-11-21T17:14:32;97380.19;;;6.75;100.00
58875;BME280;44652;49.040;12.126;2023-11-21T17:16:59;97374.78;;;6.71;100.00
58875;BME280;44652;49.040;12.126;2023-11-21T17:19:27;97389.78;;;6.75;100.00
58875;BME280;44652;49.040;12.126;2023-11-21T17:21:58;97377.56;;;6.75;100.00
58875;BME280;44652;49.040;12.126;2023-11-21T17:24:24;97397.25;;;6.88;100.00
58875;BME280;44652;49.040;12.126;2023-11-21T17:26:51;97372.47;;;6.78;100.00
58875;BME280;44652;49.040;12.126;2023-11-21T17:29:19;97396.47;;;6.91;100.00
58875;BME280;44652;49.040;12.126;2023-11-21T17:31:46;97398.53;;;6.99;100.00
58875;BME280;44652;49.040;12.126;2023-11-21T17:34:13;97386.28;;;6.74;100.00
58875;BME280;44652;49.040;12.126;2023-11-21T17:36:41;97394.28;;;6.79;100.00
58875;BME280;44652;49.040;12.126;2023-11-21T17:39:07;97383.69;;;6.76;100.00
58875;BME280;44652;49.040;12.126;2023-11-21T17:41:37;97383.81;;;6.79;100.00
58875;BME280;44652;49.040;12.126;2023-11-21T17:44:04;97390.88;;;6.81;100.00
58875;BME280;44652;49.040;12.126;2023-11-21T17:46:32;97392.44;;;6.76;100.00
58875;BME280;44652;49.040;12.126;2023-11-21T17:48:59;97413.19;;;6.94;100.00
58875;BME280;44652;49.040;12.126;2023-11-21T17:51:26;97404.97;;;6.85;100.00
58875;BME280;44652;49.040;12.126;2023-11-21T17:53:52;97411.19;;;6.87;100.00
58875;BME280;44652;49.040;12.126;2023-11-21T17:56:24;97388.78;;;6.71;100.00
58875;BME280;44652;49.040;12.126;2023-11-21T17:58:51;97393.44;;;6.80;100.00
58875;BME280;44652;49.040;12.126;2023-11-21T18:01:20;97420.16;;;6.94;100.00
58875;BME280;44652;49.040;12.126;2023-11-21T18:03:47;97397.91;;;6.82;100.00
58875;BME280;44652;49.040;12.126;2023-11-21T18:06:15;97396.19;;;6.83;100.00
58875;BME280;44652;49.040;12.126;2023-11-21T18:08:42;97401.59;;;6.88;100.00
58875;BME280;44652;49.040;12.126;2023-11-21T18:11:08;97397.72;;;6.78;100.00
58875;BME280;44652;49.040;12.126;2023-11-21T18:13:35;97415.75;;;6.93;100.00
58875;BME280;44652;49.040;12.126;2023-11-21T18:16:02;97414.09;;;6.95;100.00
58875;BME280;44652;49.040;12.126;2023-11-21T18:18:29;97398.44;;;6.74;100.00
58875;BME280;44652;49.040;12.126;2023-11-21T18:20:55;97406.50;;;6.78;100.00
58875;BME280;44652;49.040;12.126;2023-11-21T18:23:22;97427.91;;;6.91;100.00
58875;BME280;44652;49.040;12.126;2023-11-21T18:25:49;97407.50;;;6.82;100.00
58875;BME280;44652;49.040;12.126;2023-11-21T18:28:15;97406.53;;;6.80;100.00
58875;BME280;44652;49.040;12.126;2023-11-21T18:30:42;97419.75;;;6.83;100.00
58875;BME280;44652;49.040;12.126;2023-11-21T18:33:09;97441.06;;;6.92;100.00
58875;BME280;44652;49.040;12.126;2023-11-21T18:35:38;97419.81;;;6.85;100.00
58875;BME280;44652;49.040;12.126;2023-11-21T18:38:04;97434.03;;;6.91;100.00
58875;BME280;44652;49.040;12.126;2023-11-21T18:40:31;97441.59;;;6.83;100.00
58875;BME280;44652;49.040;12.126;2023-11-21T18:42:58;97419.41;;;6.74;100.00
58875;BME280;44652;49.040;12.126;2023-11-21T18:45:25;97450.63;;;6.92;100.00
58875;BME280;44652;49.040;12.126;2023-11-21T18:47:52;97444.47;;;6.90;100.00
58875;BME280;44652;49.040;12.126;2023-11-21T18:50:18;97428.47;;;6.82;100.00
58875;BME280;44652;49.040;12.126;2023-11-21T18:52:47;97449.00;;;6.94;100.00